createdAt,value
2019-02-17T00:04:44.163Z,81.51
2019-02-17T00:09:53.234Z,88.55
2019-02-17T00:15:02.353Z,58.24
2019-02-17T00:20:11.416Z,86.22
2019-02-17T00:25:20.698Z,60.10
2019-02-17T00:30:29.824Z,76.75
2019-02-17T00:35:39.022Z,76.13
2019-02-17T00:40:48.060Z,83.90
2019-02-17T00:45:57.191Z,79.43
2019-02-17T00:51:06.281Z,83.52
2019-02-17T00:56:15.430Z,88.50
2019-02-17T01:01:24.535Z,79.20
2019-02-17T01:06:33.914Z,51.67
2019-02-17T01:11:42.979Z,77.04
2019-02-17T01:16:52.164Z,79.18
2019-02-17T01:22:01.325Z,50.06
2019-02-17T01:27:10.578Z,78.42
2019-02-17T01:32:19.693Z,95.72
2019-02-17T01:37:28.828Z,51.93
2019-02-17T01:42:37.919Z,81.83
2019-02-17T01:47:47.068Z,80.92
2019-02-17T01:52:56.149Z,80.28
2019-02-17T01:58:05.260Z,92.80
2019-02-17T02:03:14.330Z,89.01
2019-02-17T02:08:23.571Z,81.11
2019-02-17T02:13:32.620Z,92.22
2019-02-17T02:18:41.765Z,82.87
2019-02-17T02:23:50.857Z,53.09
2019-02-17T02:28:59.977Z,58.80
2019-02-17T02:34:09.044Z,77.27
2019-02-17T02:39:18.199Z,78.52
2019-02-17T02:44:27.331Z,55.40
2019-02-17T02:49:36.650Z,81.37
2019-02-17T02:54:45.713Z,84.62
2019-02-17T02:59:54.918Z,82.34
2019-02-17T03:05:03.979Z,56.65
2019-02-17T03:10:13.124Z,78.57
2019-02-17T03:15:22.248Z,80.98
2019-02-17T03:20:31.572Z,82.67
2019-02-17T03:25:40.637Z,83.84
2019-02-17T03:30:49.770Z,54.82
2019-02-17T03:35:58.842Z,82.22
2019-02-17T03:41:08.001Z,59.71
2019-02-17T03:46:17.063Z,77.76
2019-02-17T03:51:26.193Z,86.61
2019-02-17T03:56:35.248Z,85.12
2019-02-17T04:01:44.477Z,83.76
2019-02-17T04:06:53.565Z,90.62
2019-02-17T04:12:02.697Z,85.01
2019-02-17T04:17:11.782Z,87.49
2019-02-17T04:22:20.983Z,93.18
2019-02-17T04:27:30.029Z,95.65
2019-02-17T04:32:39.296Z,92.13
2019-02-17T04:37:48.356Z,55.26
2019-02-17T04:42:57.581Z,83.33
2019-02-17T04:48:06.660Z,83.70
2019-02-17T04:53:15.799Z,88.76
2019-02-17T04:58:24.920Z,90.88
2019-02-17T05:03:34.201Z,93.07
2019-02-17T05:08:43.346Z,89.90
2019-02-17T05:13:52.539Z,92.05
2019-02-17T05:19:01.771Z,94.68
2019-02-17T05:24:10.834Z,88.26
2019-02-17T05:29:19.905Z,96.14
2019-02-17T05:34:29.015Z,93.62
2019-02-17T05:39:38.110Z,93.48
2019-02-17T05:44:47.362Z,96.51
2019-02-17T05:49:56.457Z,72.09
2019-02-17T05:55:05.650Z,76.47
2019-02-17T06:00:14.699Z,91.36
2019-02-17T06:05:24.129Z,93.06
2019-02-17T06:10:33.202Z,94.26
2019-02-17T06:15:42.482Z,95.23
2019-02-17T06:20:51.579Z,100.46
2019-02-17T06:26:00.873Z,64.16
2019-02-17T06:31:14.342Z,87.16
2019-02-17T06:36:18.629Z,68.41
2019-02-17T06:41:27.749Z,68.56
2019-02-17T06:46:36.867Z,72.79
2019-02-17T06:51:45.921Z,84.76
2019-02-17T06:56:55.130Z,91.60
2019-02-17T07:02:04.181Z,91.48
2019-02-17T07:07:13.287Z,90.08
2019-02-17T07:12:22.356Z,55.46
2019-02-17T07:17:31.622Z,87.28
2019-02-17T07:22:40.708Z,95.94
2019-02-17T07:27:49.875Z,109.59
2019-02-17T07:32:58.945Z,101.19
2019-02-17T07:38:08.207Z,94.05
2019-02-17T07:43:17.301Z,93.32
2019-02-17T07:48:29.607Z,105.56
2019-02-17T07:53:28.587Z,104.51
2019-02-17T07:58:37.909Z,104.06
2019-02-17T08:03:46.945Z,60.35
2019-02-17T08:08:56.120Z,64.69
2019-02-17T08:14:05.177Z,86.64
2019-02-17T08:19:14.309Z,93.53
2019-02-17T08:24:23.389Z,92.45
2019-02-17T08:29:32.508Z,94.87
2019-02-17T08:34:41.564Z,91.41
2019-02-17T08:39:50.908Z,93.93
2019-02-17T08:44:59.997Z,63.57
2019-02-17T08:50:09.119Z,91.83
2019-02-17T08:55:18.162Z,91.71
2019-02-17T09:00:27.278Z,91.34
2019-02-17T09:05:43.768Z,54.95
2019-02-17T09:10:45.026Z,58.06
2019-02-17T09:15:54.129Z,85.78
2019-02-17T09:21:03.225Z,89.80
2019-02-17T09:26:12.317Z,92.65
2019-02-17T09:31:21.404Z,88.33
2019-02-17T09:36:30.483Z,92.76
2019-02-17T09:41:39.601Z,88.78
2019-02-17T09:46:48.658Z,94.78
2019-02-17T09:51:58.072Z,93.38
2019-02-17T09:57:07.122Z,83.92
2019-02-17T10:02:26.029Z,104.84
2019-02-17T10:07:24.957Z,93.48
2019-02-17T10:12:34.155Z,90.54
2019-02-17T10:17:43.220Z,93.46
2019-02-17T10:22:52.300Z,98.01
2019-02-17T10:28:01.390Z,100.78
2019-02-17T10:33:10.525Z,95.17
2019-02-17T10:38:19.572Z,94.59
2019-02-17T10:43:28.720Z,92.43
2019-02-17T10:48:37.878Z,91.36
2019-02-17T10:53:46.988Z,93.27
2019-02-17T10:58:56.220Z,79.78
2019-02-17T11:04:05.385Z,83.44
2019-02-17T11:09:14.461Z,90.04
2019-02-17T11:14:23.594Z,85.95
2019-02-17T11:19:32.762Z,83.33
2019-02-17T11:24:42.076Z,82.98
2019-02-17T11:29:51.178Z,82.04
2019-02-17T11:35:00.472Z,88.00
2019-02-17T11:40:09.530Z,87.79
2019-02-17T11:45:18.860Z,80.76
2019-02-17T11:50:27.929Z,81.24
2019-02-17T11:55:37.118Z,90.46
2019-02-17T12:00:46.241Z,84.53
2019-02-17T12:05:55.423Z,80.04
2019-02-17T12:11:04.495Z,85.17
2019-02-17T12:16:13.580Z,80.31
2019-02-17T12:21:22.673Z,98.29
2019-02-17T12:26:31.782Z,203.00
2019-02-17T12:31:40.883Z,255.90
2019-02-17T12:36:49.941Z,275.79
2019-02-17T12:41:58.993Z,224.35
2019-02-17T12:47:08.194Z,91.76
2019-02-17T12:52:17.320Z,197.71
2019-02-17T12:57:26.440Z,81.89
2019-02-17T13:02:35.520Z,91.81
2019-02-17T13:07:44.625Z,165.20
2019-02-17T13:12:53.712Z,84.33
2019-02-17T13:18:02.886Z,81.83
2019-02-17T13:23:11.954Z,79.24
2019-02-17T13:28:21.056Z,75.88
2019-02-17T13:33:38.856Z,64.06
2019-02-17T13:38:38.809Z,80.05
2019-02-17T13:43:47.864Z,97.05
2019-02-17T13:48:57.011Z,111.15
2019-02-17T13:54:06.158Z,195.58
2019-02-17T13:59:15.434Z,112.52
2019-02-17T14:04:24.535Z,240.21
2019-02-17T14:09:33.750Z,242.10
2019-02-17T14:14:42.813Z,224.28
2019-02-17T14:19:52.039Z,211.91
2019-02-17T14:25:01.093Z,48.35
2019-02-17T14:30:10.389Z,275.53
2019-02-17T14:35:19.557Z,314.38
2019-02-17T14:40:28.845Z,255.62
2019-02-17T14:45:37.932Z,113.95
2019-02-17T14:50:47.302Z,124.03
2019-02-17T14:55:56.365Z,204.80
2019-02-17T15:01:05.594Z,238.15
2019-02-17T15:06:14.658Z,219.14
2019-02-17T15:11:23.775Z,65.89
2019-02-17T15:16:32.849Z,101.26
2019-02-17T15:21:41.963Z,83.93
2019-02-17T15:26:51.020Z,99.74
2019-02-17T15:32:00.267Z,101.24
2019-02-17T15:37:09.328Z,172.99
2019-02-17T15:42:18.499Z,75.35
2019-02-17T15:47:27.565Z,82.69
2019-02-17T15:52:36.783Z,77.80
2019-02-17T15:57:45.821Z,79.94
2019-02-17T16:02:54.948Z,81.37
2019-02-17T16:08:04.005Z,81.99
2019-02-17T16:13:13.198Z,86.19
2019-02-17T16:18:22.242Z,86.93
2019-02-17T16:23:31.466Z,83.61
2019-02-17T16:28:40.536Z,68.00
2019-02-17T16:33:49.647Z,78.61
2019-02-17T16:38:58.708Z,84.02
2019-02-17T16:44:07.977Z,83.68
2019-02-17T16:49:17.126Z,91.03
2019-02-17T16:54:26.401Z,84.28
2019-02-17T16:59:35.473Z,89.46
2019-02-17T17:04:48.492Z,90.25
2019-02-17T17:09:53.254Z,86.22
2019-02-17T17:15:02.378Z,90.41
2019-02-17T17:20:11.434Z,86.15
2019-02-17T17:25:20.676Z,92.37
2019-02-17T17:30:29.722Z,92.91
2019-02-17T17:35:38.842Z,90.03
2019-02-17T17:40:48.088Z,89.98
2019-02-17T17:45:57.118Z,77.09
2019-02-17T17:51:06.306Z,89.47
2019-02-17T17:56:15.519Z,90.73
2019-02-17T18:01:24.587Z,78.43
2019-02-17T18:06:33.846Z,89.25
2019-02-17T18:11:42.903Z,87.07
2019-02-17T18:16:52.045Z,90.34
2019-02-17T18:22:01.107Z,84.94
2019-02-17T18:27:10.245Z,90.28
2019-02-17T18:32:19.322Z,93.58
2019-02-17T18:37:28.623Z,74.68
2019-02-17T18:42:37.694Z,90.05
2019-02-17T18:47:46.952Z,87.87
2019-02-17T18:52:56.197Z,74.62
2019-02-17T18:58:05.312Z,90.90
2019-02-17T19:03:14.381Z,94.75
2019-02-17T19:08:23.505Z,93.55
2019-02-17T19:13:32.584Z,91.67
2019-02-17T19:18:41.745Z,89.09
2019-02-17T19:23:50.867Z,72.04
2019-02-17T19:29:00.109Z,80.87
2019-02-17T19:34:09.139Z,88.37
2019-02-17T19:39:18.381Z,86.34
2019-02-17T19:44:27.472Z,91.28
2019-02-17T19:49:36.584Z,91.31
2019-02-17T19:54:45.641Z,90.77
2019-02-17T19:59:54.961Z,90.15
2019-02-17T20:05:04.002Z,92.63
2019-02-17T20:10:14.418Z,89.74
2019-02-17T20:15:13.536Z,89.39
2019-02-17T20:20:22.654Z,68.67
2019-02-17T20:25:31.762Z,88.47
2019-02-17T20:30:40.972Z,72.55
2019-02-17T20:35:50.038Z,88.99
2019-02-17T20:40:59.138Z,93.82
2019-02-17T20:46:08.253Z,96.38
2019-02-17T20:51:17.352Z,85.15
2019-02-17T20:56:26.451Z,93.07
2019-02-17T21:01:35.648Z,91.58
2019-02-17T21:06:44.768Z,91.32
2019-02-17T21:11:53.869Z,96.72
2019-02-17T21:17:02.954Z,93.03
2019-02-17T21:22:12.171Z,65.00
2019-02-17T21:27:21.229Z,91.02
2019-02-17T21:32:30.349Z,93.72
2019-02-17T21:37:39.430Z,92.54
2019-02-17T21:42:48.613Z,67.15
2019-02-17T21:47:57.737Z,90.51
2019-02-17T21:53:10.312Z,89.22
2019-02-17T21:58:15.445Z,91.63
2019-02-17T22:03:24.575Z,89.16
2019-02-17T22:08:33.613Z,88.87
2019-02-17T22:13:42.908Z,65.10
2019-02-17T22:18:51.973Z,93.31
2019-02-17T22:24:01.095Z,86.99
2019-02-17T22:29:12.635Z,92.74
2019-02-17T22:34:18.941Z,67.24
2019-02-17T22:39:27.992Z,88.50
2019-02-17T22:44:37.160Z,88.88
2019-02-17T22:49:46.355Z,95.11
2019-02-17T22:54:55.465Z,92.90
2019-02-17T23:00:04.510Z,98.20
2019-02-17T23:05:13.762Z,84.66
2019-02-17T23:10:22.812Z,92.84
2019-02-17T23:15:31.989Z,93.29
2019-02-17T23:20:40.985Z,89.42
2019-02-17T23:25:50.093Z,89.44
2019-02-17T23:30:59.138Z,94.28
2019-02-17T23:36:08.315Z,92.74
2019-02-17T23:41:17.357Z,89.02
2019-02-17T23:46:26.639Z,88.00
2019-02-17T23:51:35.698Z,95.32
2019-02-17T23:56:44.871Z,86.24
